Time;durP1;ratioP1;P1;durP2;ratioP2;P2;SDS_P1;SDS_P2;PMS_P1;PMS_P2;Temp;Humidity;BMP_temperature;BMP_pressure;BME280_temperature;BME280_humidity;BME280_pressure;Samples;Min_cycle;Max_cycle;Signal;HPM_P1;HPM_P2
2021/06/03 00:00:54;;;;;;;0.90;0.80;;;22.80;50.10;;;;;;6322728;28;20074;-63
2021/06/03 00:03:54;;;;;;;0.98;0.88;;;22.80;50.10;;;;;;6341085;28;20050;-64
2021/06/03 00:06:55;;;;;;;1.98;0.70;;;22.80;50.20;;;;;;6340501;28;20588;-63
2021/06/03 00:09:55;;;;;;;1.88;0.70;;;22.80;50.10;;;;;;6340893;28;20497;-64
2021/06/03 00:12:57;;;;;;;0.70;0.70;;;22.80;50.10;;;;;;6341118;28;20062;-64
2021/06/03 00:16:00;;;;;;;1.13;0.82;;;22.80;50.10;;;;;;6340753;28;20035;-64
2021/06/03 00:19:06;;;;;;;0.80;0.70;;;22.80;50.10;;;;;;6323499;28;20020;-64
2021/06/03 00:22:07;;;;;;;1.27;0.80;;;22.80;50.10;;;;;;6340700;28;20024;-64
2021/06/03 00:25:08;;;;;;;1.08;0.68;;;22.80;50.10;;;;;;6322199;28;20160;-63
2021/06/03 00:28:09;;;;;;;0.90;0.75;;;22.80;50.10;;;;;;6340557;28;20439;-63
2021/06/03 00:31:09;;;;;;;1.00;0.90;;;22.80;50.10;;;;;;6340470;28;20077;-64
2021/06/03 00:34:10;;;;;;;1.15;0.80;;;22.80;50.10;;;;;;6340716;28;20495;-63
2021/06/03 00:37:11;;;;;;;0.80;0.70;;;22.80;50.10;;;;;;6340105;28;20105;-63
2021/06/03 00:40:14;;;;;;;1.17;0.80;;;22.80;50.10;;;;;;6339623;28;20468;-64
2021/06/03 00:43:14;;;;;;;0.75;0.65;;;22.80;50.20;;;;;;6322346;28;20084;-64
2021/06/03 00:46:15;;;;;;;1.10;0.90;;;22.80;50.10;;;;;;6339921;28;20028;-64
2021/06/03 00:49:15;;;;;;;0.85;0.73;;;22.80;50.20;;;;;;6340206;28;20032;-63
2021/06/03 00:52:16;;;;;;;0.88;0.80;;;22.80;50.20;;;;;;6339626;28;20584;-63
2021/06/03 00:55:17;;;;;;;0.90;0.65;;;22.80;50.20;;;;;;6339947;28;20044;-64
2021/06/03 00:58:19;;;;;;;1.10;0.77;;;22.80;50.30;;;;;;6339687;28;20106;-64
2021/06/03 01:01:19;;;;;;;0.80;0.77;;;22.80;50.20;;;;;;6339407;28;20027;-64
2021/06/03 01:04:21;;;;;;;0.80;0.80;;;22.80;50.20;;;;;;6339766;28;20048;-64
2021/06/03 01:07:22;;;;;;;1.60;0.80;;;22.80;50.20;;;;;;6339385;28;20586;-64
2021/06/03 01:10:31;;;;;;;0.88;0.80;;;22.80;50.20;;;;;;6339601;28;20030;-64
2021/06/03 01:13:31;;;;;;;0.80;0.80;;;22.80;50.20;;;;;;6339354;28;20091;-64
2021/06/03 01:16:34;;;;;;;1.50;1.13;;;22.80;50.20;;;;;;6339628;28;20043;-64
2021/06/03 01:19:41;;;;;;;1.00;0.80;;;22.80;50.20;;;;;;6338988;28;20090;-64
2021/06/03 01:22:53;;;;;;;1.00;0.73;;;22.80;50.20;;;;;;6339331;28;20053;-64
2021/06/03 01:25:54;;;;;;;0.82;0.75;;;22.80;50.20;;;;;;6339129;28;20045;-64
2021/06/03 01:28:55;;;;;;;0.90;0.70;;;22.80;50.20;;;;;;6338539;28;20600;-64
2021/06/03 01:31:57;;;;;;;1.15;0.77;;;22.80;50.20;;;;;;6338821;28;20031;-63
2021/06/03 01:34:59;;;;;;;0.60;0.60;;;22.80;50.90;;;;;;6338810;28;20152;-64
2021/06/03 01:38:02;;;;;;;0.90;0.80;;;22.80;50.30;;;;;;6338879;28;20546;-64
2021/06/03 01:41:06;;;;;;;1.00;0.75;;;22.80;50.30;;;;;;6338781;28;20700;-64
2021/06/03 01:44:07;;;;;;;1.63;0.80;;;22.70;50.20;;;;;;6338758;28;20019;-64
2021/06/03 01:47:09;;;;;;;0.93;0.73;;;22.70;50.20;;;;;;6338791;28;20030;-63
2021/06/03 01:50:11;;;;;;;0.90;0.90;;;22.70;50.20;;;;;;6338633;28;20026;-64
2021/06/03 01:53:14;;;;;;;0.88;0.82;;;22.70;50.30;;;;;;6338059;28;20694;-63
2021/06/03 01:56:16;;;;;;;1.13;0.82;;;22.70;50.30;;;;;;6338724;28;20526;-64
2021/06/03 01:59:17;;;;;;;1.15;0.80;;;22.70;50.30;;;;;;6338685;28;20039;-63
2021/06/03 02:02:17;;;;;;;1.08;0.90;;;22.70;50.30;;;;;;6338375;28;20098;-63
2021/06/03 02:05:19;;;;;;;1.52;0.80;;;22.70;50.30;;;;;;6338513;28;20181;-63
2021/06/03 02:08:20;;;;;;;0.82;0.80;;;22.70;50.30;;;;;;6338436;28;20042;-64
2021/06/03 02:11:22;;;;;;;1.15;0.80;;;22.70;50.30;;;;;;6338072;28;20655;-64
2021/06/03 02:14:27;;;;;;;1.00;0.88;;;22.70;50.30;;;;;;6338695;28;20031;-63
2021/06/03 02:17:32;;;;;;;0.90;0.60;;;22.70;50.40;;;;;;6338230;28;20066;-64
2021/06/03 02:20:36;;;;;;;0.73;0.65;;;22.70;50.30;;;;;;6338404;28;20586;-64
2021/06/03 02:23:37;;;;;;;1.13;0.80;;;22.60;50.20;;;;;;6338424;28;20035;-64
2021/06/03 02:26:41;;;;;;;0.70;0.60;;;22.60;50.20;;;;;;6338403;28;20482;-63
2021/06/03 02:29:42;;;;;;;0.65;0.57;;;22.60;50.30;;;;;;6338162;28;20527;-63
2021/06/03 02:32:43;;;;;;;0.85;0.70;;;22.60;50.30;;;;;;6338083;28;20015;-64
2021/06/03 02:35:45;;;;;;;1.13;0.80;;;22.60;50.30;;;;;;6338949;28;20480;-64
2021/06/03 02:38:46;;;;;;;0.80;0.80;;;22.60;50.30;;;;;;6338049;28;20082;-64
2021/06/03 02:41:48;;;;;;;0.60;0.60;;;22.60;50.30;;;;;;6339409;28;20055;-64
2021/06/03 02:44:49;;;;;;;0.70;0.70;;;22.60;50.30;;;;;;6343046;28;20027;-64
2021/06/03 02:47:52;;;;;;;0.70;0.70;;;22.60;50.30;;;;;;6342867;28;20034;-64
2021/06/03 02:50:53;;;;;;;1.00;0.70;;;22.60;50.30;;;;;;6342740;28;20115;-64
2021/06/03 02:53:54;;;;;;;0.98;0.70;;;22.60;50.40;;;;;;6342746;28;20520;-64
2021/06/03 02:56:54;;;;;;;0.85;0.80;;;22.60;50.30;;;;;;6342885;28;20024;-64
2021/06/03 02:59:55;;;;;;;0.80;0.80;;;22.60;50.40;;;;;;6342464;28;20023;-64
2021/06/03 03:02:56;;;;;;;0.75;0.75;;;22.60;50.40;;;;;;6342562;28;20372;-64
2021/06/03 03:05:57;;;;;;;1.02;0.60;;;22.60;50.30;;;;;;6342127;28;20028;-64
2021/06/03 03:08:57;;;;;;;0.88;0.77;;;22.60;50.30;;;;;;6342263;28;20548;-64
2021/06/03 03:11:58;;;;;;;0.93;0.70;;;22.60;50.30;;;;;;6341918;28;20035;-63
2021/06/03 03:14:59;;;;;;;0.40;0.40;;;22.60;50.40;;;;;;6342759;28;20020;-63
2021/06/03 03:18:00;;;;;;;0.68;0.68;;;22.60;50.30;;;;;;6342298;28;20016;-64
2021/06/03 03:21:05;;;;;;;0.70;0.50;;;22.60;50.40;;;;;;6342062;28;20020;-64
2021/06/03 03:24:06;;;;;;;0.77;0.70;;;22.60;50.40;;;;;;6342517;28;20031;-64
2021/06/03 03:27:07;;;;;;;1.48;1.08;;;22.60;50.40;;;;;;6341828;28;20027;-64
2021/06/03 03:30:12;;;;;;;1.08;0.70;;;22.60;50.40;;;;;;6341764;28;20484;-64
2021/06/03 03:33:15;;;;;;;0.63;0.60;;;22.60;50.40;;;;;;6341608;28;20024;-64
2021/06/03 03:36:15;;;;;;;0.70;0.60;;;22.60;50.40;;;;;;6342151;28;20041;-64
2021/06/03 03:39:16;;;;;;;0.90;0.70;;;22.60;50.40;;;;;;6341690;28;20028;-64
2021/06/03 03:42:17;;;;;;;1.00;0.80;;;22.60;50.40;;;;;;6342013;28;20027;-63
2021/06/03 03:45:20;;;;;;;1.05;0.90;;;22.60;50.50;;;;;;6341827;28;20093;-64
2021/06/03 03:48:21;;;;;;;0.98;0.90;;;22.60;50.50;;;;;;6341562;28;20028;-64
2021/06/03 03:51:22;;;;;;;0.75;0.73;;;22.60;50.40;;;;;;6341501;28;20567;-64
2021/06/03 03:54:22;;;;;;;0.77;0.60;;;22.60;50.40;;;;;;6340731;28;20043;-64
2021/06/03 03:57:24;;;;;;;0.75;0.75;;;22.60;50.40;;;;;;6341530;28;20027;-64
2021/06/03 04:00:34;;;;;;;0.70;0.70;;;22.60;50.40;;;;;;6322910;28;20705;-64
2021/06/03 04:03:35;;;;;;;0.95;0.70;;;22.60;50.50;;;;;;6341281;28;20015;-63
2021/06/03 04:06:38;;;;;;;0.77;0.73;;;22.60;50.40;;;;;;6341005;28;20039;-64
2021/06/03 04:09:40;;;;;;;0.80;0.65;;;22.60;50.40;;;;;;6340791;28;20023;-64
2021/06/03 04:12:41;;;;;;;1.00;0.80;;;22.60;50.40;;;;;;6341298;28;20058;-63
2021/06/03 04:15:41;;;;;;;1.00;0.90;;;22.60;50.40;;;;;;6343025;28;20027;-63
2021/06/03 04:18:42;;;;;;;1.20;0.85;;;22.60;50.50;;;;;;6341137;28;20035;-64
2021/06/03 04:21:43;;;;;;;0.98;0.80;;;22.60;50.50;;;;;;6340919;28;20638;-64
2021/06/03 04:24:43;;;;;;;1.00;0.70;;;22.60;50.50;;;;;;6341050;28;20549;-64
2021/06/03 04:27:44;;;;;;;1.00;0.88;;;22.60;50.50;;;;;;6341370;28;20039;-64
2021/06/03 04:30:45;;;;;;;0.98;0.82;;;22.60;50.50;;;;;;6340746;28;20130;-63
2021/06/03 04:33:46;;;;;;;0.98;0.80;;;22.60;50.50;;;;;;6322720;28;20038;-63
2021/06/03 04:36:47;;;;;;;1.05;0.80;;;22.60;51.20;;;;;;6340667;28;20062;-64
2021/06/03 04:39:48;;;;;;;1.20;0.90;;;22.60;50.50;;;;;;6340475;28;20030;-64
2021/06/03 04:42:49;;;;;;;1.08;0.88;;;22.60;50.50;;;;;;6340515;28;20023;-64
2021/06/03 04:45:50;;;;;;;0.90;0.80;;;22.60;50.50;;;;;;6340261;28;20019;-64
2021/06/03 04:48:54;;;;;;;4.95;0.80;;;22.60;51.20;;;;;;6340635;28;20027;-64
2021/06/03 04:51:54;;;;;;;1.60;0.90;;;22.60;50.50;;;;;;6340082;28;20099;-64
2021/06/03 04:55:00;;;;;;;1.08;0.98;;;22.60;50.50;;;;;;6339974;28;20054;-64
2021/06/03 04:58:03;;;;;;;1.35;0.80;;;22.60;50.50;;;;;;6321690;28;20557;-64
2021/06/03 05:01:03;;;;;;;1.00;0.90;;;22.60;50.60;;;;;;6320360;28;20047;-63
2021/06/03 05:04:04;;;;;;;2.10;1.02;;;22.60;50.50;;;;;;6339254;28;20023;-64
2021/06/03 05:07:05;;;;;;;0.68;0.68;;;22.60;50.60;;;;;;6339949;28;20070;-64
2021/06/03 05:10:07;;;;;;;0.75;0.70;;;22.60;50.50;;;;;;6321537;28;20108;-64
2021/06/03 05:13:08;;;;;;;0.98;0.85;;;22.60;50.50;;;;;;6340370;28;20031;-64
2021/06/03 05:16:09;;;;;;;0.98;0.80;;;22.60;50.60;;;;;;6341123;28;20540;-64
2021/06/03 05:19:09;;;;;;;0.80;0.60;;;22.60;50.60;;;;;;6340502;28;20039;-64
2021/06/03 05:22:10;;;;;;;1.27;0.98;;;22.60;50.60;;;;;;6339614;28;20024;-63
2021/06/03 05:25:14;;;;;;;1.70;0.75;;;22.60;50.60;;;;;;6339638;28;20024;-63
2021/06/03 05:28:15;;;;;;;1.25;0.70;;;22.60;50.60;;;;;;6339654;28;20019;-64
2021/06/03 05:31:15;;;;;;;0.77;0.70;;;22.60;50.60;;;;;;6339391;28;20526;-64
2021/06/03 05:34:16;;;;;;;0.98;0.75;;;22.60;50.60;;;;;;6321207;28;20031;-64
2021/06/03 05:37:17;;;;;;;1.30;0.90;;;22.60;50.60;;;;;;6321323;28;20076;-64
2021/06/03 05:40:20;;;;;;;0.95;0.70;;;22.60;50.60;;;;;;6338785;28;20020;-64
2021/06/03 05:43:21;;;;;;;1.08;0.93;;;22.60;50.60;;;;;;6339222;28;20027;-64
2021/06/03 05:46:22;;;;;;;0.80;0.70;;;22.60;50.60;;;;;;6338737;28;20069;-64
2021/06/03 05:49:22;;;;;;;1.20;0.80;;;22.60;50.60;;;;;;6339094;28;20022;-63
2021/06/03 05:52:23;;;;;;;0.90;0.70;;;22.60;50.60;;;;;;6339026;28;20020;-63
2021/06/03 05:55:24;;;;;;;1.30;0.60;;;22.60;50.70;;;;;;6320975;28;20136;-63
2021/06/03 05:58:24;;;;;;;0.82;0.70;;;22.60;50.60;;;;;;6339037;28;20068;-64
2021/06/03 06:01:25;;;;;;;0.80;0.70;;;22.60;50.60;;;;;;6336823;28;20088;-63
2021/06/03 06:07:27;;;;;;;0.75;0.75;;;22.60;50.60;;;;;;6342784;28;20068;-64
2021/06/03 06:10:29;;;;;;;0.90;0.80;;;22.60;50.60;;;;;;6342436;28;20027;-65
2021/06/03 06:13:30;;;;;;;0.98;0.80;;;22.60;50.70;;;;;;6315850;28;20023;-69
2021/06/03 06:16:31;;;;;;;1.00;0.80;;;22.60;50.60;;;;;;6325055;28;20059;-69
2021/06/03 06:19:31;;;;;;;0.90;0.70;;;22.60;50.60;;;;;;6327229;28;20023;-69
2021/06/03 06:22:33;;;;;;;0.88;0.70;;;22.60;50.70;;;;;;6345366;28;20080;-70
2021/06/03 06:25:34;;;;;;;0.90;0.70;;;22.60;50.80;;;;;;6326480;28;20708;-72
2021/06/03 06:28:35;;;;;;;1.20;0.88;;;22.60;50.70;;;;;;6328423;28;20024;-69
2021/06/03 06:31:35;;;;;;;0.80;0.60;;;22.60;50.70;;;;;;6323935;27;20027;-67
2021/06/03 06:34:36;;;;;;;1.40;0.88;;;22.60;50.70;;;;;;6349192;27;20028;-67
2021/06/03 06:37:36;;;;;;;2.10;0.93;;;22.60;50.70;;;;;;6346092;28;20054;-68
2021/06/03 06:40:37;;;;;;;1.42;0.85;;;22.70;51.70;;;;;;6346097;27;20038;-68
2021/06/03 06:43:38;;;;;;;1.40;0.77;;;22.60;49.10;;;;;;6343192;28;20023;-67
2021/06/03 06:46:39;;;;;;;1.33;0.73;;;22.70;48.30;;;;;;6344421;28;20028;-68
2021/06/03 06:49:40;;;;;;;2.97;0.90;;;22.80;47.90;;;;;;6327846;28;20085;-68
2021/06/03 06:52:42;;;;;;;0.80;0.68;;;22.80;47.60;;;;;;6347046;28;20028;-68
2021/06/03 06:55:43;;;;;;;1.92;0.98;;;22.90;47.20;;;;;;6346621;28;20043;-67
2021/06/03 06:58:44;;;;;;;4.40;0.88;;;22.90;47.00;;;;;;6327940;28;20398;-69
2021/06/03 07:01:44;;;;;;;1.00;0.80;;;23.00;46.70;;;;;;6345225;28;20024;-69
2021/06/03 07:04:45;;;;;;;1.27;1.05;;;23.10;46.60;;;;;;6343037;28;20019;-69
2021/06/03 07:07:45;;;;;;;1.00;0.88;;;23.10;46.40;;;;;;6326561;28;20053;-69
2021/06/03 07:10:46;;;;;;;2.08;1.00;;;23.10;46.30;;;;;;6326442;28;20031;-69
2021/06/03 07:13:47;;;;;;;2.03;0.90;;;23.20;46.30;;;;;;6344855;28;20023;-69
2021/06/03 07:16:48;;;;;;;2.45;1.10;;;23.20;46.20;;;;;;6339382;28;20035;-70
2021/06/03 07:19:50;;;;;;;1.40;1.10;;;23.20;46.10;;;;;;6325332;28;20069;-69
2021/06/03 07:22:56;;;;;;;1.05;0.90;;;23.30;46.10;;;;;;6326669;28;20051;-69
2021/06/03 07:25:57;;;;;;;1.20;0.80;;;23.30;46.00;;;;;;6344383;28;20016;-69
2021/06/03 07:29:04;;;;;;;3.50;1.10;;;23.30;45.90;;;;;;6325588;28;20020;-69
2021/06/03 07:32:06;;;;;;;2.50;0.90;;;23.30;45.80;;;;;;6344664;28;20015;-69
2021/06/03 07:35:09;;;;;;;1.75;1.05;;;23.30;45.60;;;;;;6341606;28;20051;-69
2021/06/03 07:38:10;;;;;;;1.77;1.17;;;23.30;45.70;;;;;;6344668;28;20020;-69
2021/06/03 07:41:11;;;;;;;1.65;1.00;;;23.30;45.80;;;;;;6341284;28;20208;-69
2021/06/03 07:44:12;;;;;;;1.55;1.00;;;23.30;45.70;;;;;;6326378;28;20028;-69
2021/06/03 07:47:14;;;;;;;2.65;1.20;;;23.30;45.60;;;;;;6326684;27;20148;-69
2021/06/03 07:50:15;;;;;;;1.67;1.08;;;23.30;45.70;;;;;;6353675;27;20559;-69
2021/06/03 07:53:16;;;;;;;4.35;1.00;;;23.30;45.60;;;;;;6343791;28;20027;-69
2021/06/03 07:56:17;;;;;;;1.15;1.00;;;23.30;45.60;;;;;;6345088;28;20054;-68
2021/06/03 07:59:18;;;;;;;1.33;1.02;;;23.30;45.50;;;;;;6326054;28;21765;-69
2021/06/03 08:02:18;;;;;;;5.32;1.10;;;23.40;45.40;;;;;;6344612;28;20388;-69
2021/06/03 08:05:27;;;;;;;4.10;1.20;;;23.40;45.40;;;;;;6344600;28;20118;-69
2021/06/03 08:08:28;;;;;;;1.23;1.08;;;23.40;45.30;;;;;;6339361;28;20090;-69
2021/06/03 08:11:28;;;;;;;1.98;0.80;;;23.40;45.30;;;;;;6343783;28;20032;-69
2021/06/03 08:14:29;;;;;;;1.92;1.00;;;23.40;45.30;;;;;;6343148;28;20540;-69
2021/06/03 08:17:30;;;;;;;1.20;0.73;;;23.40;45.20;;;;;;6343329;28;20023;-69
2021/06/03 08:20:34;;;;;;;1.98;0.90;;;23.40;45.20;;;;;;6343110;28;20069;-69
2021/06/03 08:23:35;;;;;;;2.30;0.90;;;23.40;45.20;;;;;;6318383;28;20023;-69
2021/06/03 08:26:37;;;;;;;1.90;0.98;;;23.40;45.10;;;;;;6327860;28;20916;-69
2021/06/03 08:29:37;;;;;;;1.13;0.82;;;23.40;45.10;;;;;;6341629;28;20488;-69
2021/06/03 08:32:39;;;;;;;1.92;1.00;;;23.40;45.10;;;;;;6344068;27;20036;-69
2021/06/03 08:35:40;;;;;;;4.45;0.85;;;23.40;45.00;;;;;;6337259;27;20061;-72
2021/06/03 08:38:41;;;;;;;1.88;1.25;;;23.40;45.30;;;;;;6332681;28;20032;-72
2021/06/03 08:41:45;;;;;;;1.63;0.80;;;23.40;44.90;;;;;;6318936;27;20031;-70
2021/06/03 08:44:46;;;;;;;1.75;1.05;;;23.50;44.90;;;;;;6342572;28;20069;-69
2021/06/03 08:47:47;;;;;;;3.28;1.13;;;23.50;44.80;;;;;;6324915;28;20027;-70
2021/06/03 08:50:52;;;;;;;1.70;1.17;;;23.50;44.80;;;;;;6343185;28;20037;-70
2021/06/03 08:53:53;;;;;;;1.48;1.10;;;23.60;44.70;;;;;;6324396;28;20028;-69
2021/06/03 08:56:53;;;;;;;3.85;1.00;;;23.60;44.90;;;;;;6324294;28;20043;-69
2021/06/03 08:59:54;;;;;;;2.17;1.20;;;23.60;44.70;;;;;;6343037;28;20030;-69
2021/06/03 09:02:55;;;;;;;2.40;1.10;;;23.60;44.50;;;;;;6342250;28;20610;-70
2021/06/03 09:05:55;;;;;;;3.95;1.02;;;23.60;44.70;;;;;;6342116;28;20659;-69
2021/06/03 09:08:59;;;;;;;1.48;1.13;;;23.60;45.50;;;;;;6354887;27;20020;-69
2021/06/03 09:12:13;;;;;;;1.17;1.05;;;23.60;44.60;;;;;;6342741;28;20026;-68
2021/06/03 09:15:15;;;;;;;2.38;1.13;;;23.60;44.60;;;;;;6341184;28;20034;-66
2021/06/03 09:18:26;;;;;;;8.27;1.00;;;23.60;44.50;;;;;;6341453;28;20059;-67
2021/06/03 09:21:30;;;;;;;2.55;1.10;;;23.60;44.50;;;;;;6341542;28;20456;-68
2021/06/03 09:24:32;;;;;;;0.80;0.77;;;23.60;44.50;;;;;;6341682;28;20023;-67
2021/06/03 09:27:34;;;;;;;3.78;1.10;;;23.60;44.50;;;;;;6341503;28;20027;-67
2021/06/03 09:31:09;;;;;;;1.02;0.90;;;23.60;44.50;;;;;;6341758;28;20558;-68
2021/06/03 09:34:15;;;;;;;1.77;1.13;;;23.60;44.40;;;;;;6323318;28;20039;-66
2021/06/03 09:37:17;;;;;;;1.35;0.85;;;23.60;44.40;;;;;;6338342;28;20043;-67
2021/06/03 09:40:22;;;;;;;1.27;1.15;;;23.60;44.40;;;;;;6341300;28;20027;-66
2021/06/03 09:43:23;;;;;;;;;;;23.60;44.40;;;;;;6341653;28;20016;-67
2021/06/03 09:46:24;;;;;;;1.88;1.02;;;23.60;44.30;;;;;;6341407;28;19908;-67
2021/06/03 09:49:49;;;;;;;1.27;1.00;;;23.60;44.30;;;;;;6340443;28;20028;-65
2021/06/03 09:52:50;;;;;;;1.17;0.85;;;23.60;44.30;;;;;;6325795;28;20032;-65
2021/06/03 09:55:51;;;;;;;1.27;1.00;;;23.60;44.90;;;;;;6340921;28;20051;-65
2021/06/03 09:58:52;;;;;;;1.77;1.00;;;23.60;44.10;;;;;;6340985;28;20050;-65
2021/06/03 10:01:55;;;;;;;1.27;0.90;;;23.60;44.20;;;;;;6340914;28;20023;-65
2021/06/03 10:04:56;;;;;;;1.48;1.13;;;23.70;44.30;;;;;;6333593;28;20551;-65
2021/06/03 10:08:02;;;;;;;3.38;0.82;;;23.60;44.10;;;;;;6332638;28;20034;-65
2021/06/03 10:11:03;;;;;;;1.40;1.02;;;23.60;44.00;;;;;;6340676;28;20036;-65
2021/06/03 10:14:13;;;;;;;1.90;0.90;;;23.60;44.10;;;;;;6342411;28;20089;-70
2021/06/03 10:17:17;;;;;;;1.13;0.88;;;23.60;44.10;;;;;;6340793;28;20031;-68
2021/06/03 10:20:29;;;;;;;1.30;0.98;;;23.60;43.90;;;;;;6323433;28;20051;-71
2021/06/03 10:23:30;;;;;;;3.33;0.80;;;23.70;44.00;;;;;;6308755;28;20036;-68
2021/06/03 10:26:54;;;;;;;1.38;1.00;;;23.60;44.00;;;;;;6338337;28;20144;-69
2021/06/03 10:29:55;;;;;;;1.40;1.00;;;23.70;44.00;;;;;;6322354;28;20026;-70
2021/06/03 10:33:04;;;;;;;1.27;1.00;;;23.60;44.20;;;;;;6320790;28;20027;-67
2021/06/03 10:36:08;;;;;;;1.55;0.93;;;23.60;44.60;;;;;;6340241;28;20019;-67
2021/06/03 10:39:09;;;;;;;1.17;0.93;;;23.50;45.10;;;;;;6323094;28;20119;-67
2021/06/03 10:42:13;;;;;;;1.95;1.30;;;23.50;45.60;;;;;;6339613;28;20137;-68
2021/06/03 10:45:16;;;;;;;1.02;0.80;;;23.40;45.80;;;;;;6338657;28;20465;-67
2021/06/03 10:48:17;;;;;;;1.85;1.00;;;23.40;46.10;;;;;;6343175;28;20027;-67
2021/06/03 10:51:18;;;;;;;1.45;1.20;;;23.40;46.30;;;;;;6339595;28;20098;-67
2021/06/03 10:54:48;;;;;;;2.88;0.93;;;23.40;46.40;;;;;;6339218;28;20439;-68
2021/06/03 10:57:53;;;;;;;1.00;0.90;;;23.30;46.60;;;;;;6328020;28;20020;-67
2021/06/03 11:01:03;;;;;;;2.37;1.00;;;23.40;46.80;;;;;;6321689;28;20075;-64
2021/06/03 11:04:10;;;;;;;1.60;1.02;;;23.30;46.80;;;;;;6325544;28;20046;-66
2021/06/03 11:07:12;;;;;;;1.88;1.30;;;23.30;47.00;;;;;;6342921;28;20031;-67
2021/06/03 11:10:31;;;;;;;1.30;1.05;;;23.30;47.10;;;;;;6339278;28;20024;-68
2021/06/03 11:13:32;;;;;;;3.05;1.10;;;23.30;47.30;;;;;;6342482;27;20528;-68
2021/06/03 11:16:35;;;;;;;2.35;1.10;;;23.30;47.30;;;;;;6343906;28;20027;-67
2021/06/03 11:19:36;;;;;;;2.10;1.20;;;23.30;47.40;;;;;;6343380;28;20598;-67
2021/06/03 11:22:37;;;;;;;1.60;0.93;;;23.30;47.50;;;;;;6347207;27;20157;-67
2021/06/03 11:25:38;;;;;;;1.65;0.90;;;23.30;47.60;;;;;;6346514;27;20015;-67
2021/06/03 11:28:38;;;;;;;1.52;1.00;;;23.30;47.70;;;;;;6329784;28;20038;-67
2021/06/03 11:31:44;;;;;;;1.63;1.20;;;23.30;47.70;;;;;;6343389;28;20032;-68
2021/06/03 11:34:46;;;;;;;1.27;0.80;;;23.30;47.80;;;;;;6353736;27;20027;-67
2021/06/03 11:37:48;;;;;;;1.33;0.80;;;23.30;47.80;;;;;;6342044;28;20032;-68
2021/06/03 11:40:48;;;;;;;1.75;0.93;;;23.30;48.60;;;;;;6341189;28;20415;-68
2021/06/03 11:44:14;;;;;;;1.30;1.10;;;23.30;47.90;;;;;;6346988;27;20038;-67
2021/06/03 11:47:15;;;;;;;0.90;0.80;;;23.30;48.00;;;;;;6328726;28;20031;-67
2021/06/03 11:50:15;;;;;;;1.23;0.95;;;23.30;48.10;;;;;;6341614;28;20035;-68
2021/06/03 11:53:22;;;;;;;1.30;1.10;;;23.30;48.10;;;;;;6322509;27;20424;-67
2021/06/03 11:56:27;;;;;;;1.15;0.90;;;23.30;48.10;;;;;;6333738;28;20155;-67
2021/06/03 11:59:53;;;;;;;1.77;1.10;;;23.30;48.20;;;;;;6340669;28;20088;-67
2021/06/03 12:02:54;;;;;;;2.40;0.80;;;23.30;48.20;;;;;;6311828;28;20420;-68
2021/06/03 12:06:06;;;;;;;1.95;1.17;;;23.30;48.20;;;;;;6342048;28;20044;-67
2021/06/03 12:09:35;;;;;;;1.73;1.10;;;23.30;48.20;;;;;;6342175;28;20060;-67
2021/06/03 12:12:36;;;;;;;2.20;1.13;;;23.30;48.30;;;;;;6322707;28;20057;-67
2021/06/03 12:15:42;;;;;;;1.38;1.00;;;23.30;48.30;;;;;;6345822;27;20016;-67
2021/06/03 12:18:44;;;;;;;1.70;1.20;;;23.30;48.40;;;;;;6341948;28;20035;-67
2021/06/03 12:21:52;;;;;;;1.40;1.15;;;23.30;48.50;;;;;;6334022;27;20020;-67
2021/06/03 12:24:57;;;;;;;2.00;1.13;;;23.30;48.50;;;;;;6334103;28;20023;-68
2021/06/03 12:27:58;;;;;;;;;;;23.30;48.40;;;;;;6343038;28;20027;-68
2021/06/03 12:30:58;;;;;;;1.65;1.10;;;23.30;48.50;;;;;;6342557;28;19930;-67
2021/06/03 12:33:59;;;;;;;1.13;0.93;;;23.30;48.50;;;;;;6341654;28;20508;-67
2021/06/03 12:37:00;;;;;;;1.13;1.02;;;23.30;48.60;;;;;;6322522;28;20024;-68
2021/06/03 12:40:07;;;;;;;1.80;1.20;;;23.30;48.70;;;;;;6342272;28;20030;-67
2021/06/03 12:43:11;;;;;;;2.78;1.00;;;23.30;48.60;;;;;;6342003;28;20110;-67
2021/06/03 12:46:13;;;;;;;1.65;1.02;;;23.30;48.70;;;;;;6341774;28;20035;-68
2021/06/03 12:49:21;;;;;;;1.75;1.02;;;23.30;48.70;;;;;;6322861;28;20119;-68
2021/06/03 12:52:27;;;;;;;1.55;1.17;;;23.30;48.70;;;;;;6340913;28;20430;-68
2021/06/03 12:55:30;;;;;;;3.20;1.15;;;23.30;48.70;;;;;;6343028;28;20050;-67
2021/06/03 12:58:33;;;;;;;1.10;0.80;;;23.30;48.70;;;;;;6342474;28;20154;-67
2021/06/03 13:01:34;;;;;;;0.98;0.88;;;23.30;48.80;;;;;;6340400;28;20509;-67
2021/06/03 13:04:44;;;;;;;1.35;1.15;;;23.30;48.80;;;;;;6342328;27;20077;-70
2021/06/03 13:07:45;;;;;;;1.33;0.85;;;23.30;48.90;;;;;;6354394;27;20024;-67
2021/06/03 13:10:46;;;;;;;1.83;0.90;;;23.30;48.90;;;;;;6341094;28;20103;-67
2021/06/03 13:13:47;;;;;;;1.75;1.20;;;23.30;48.90;;;;;;6338621;28;20256;-67
2021/06/03 13:16:53;;;;;;;2.45;1.08;;;23.30;49.00;;;;;;6339730;28;20405;-67
2021/06/03 13:19:53;;;;;;;1.95;0.90;;;23.30;49.00;;;;;;6339523;28;20036;-67
2021/06/03 13:22:57;;;;;;;3.42;1.20;;;23.30;49.00;;;;;;6347965;27;20463;-67
2021/06/03 13:25:59;;;;;;;2.55;1.17;;;23.30;49.20;;;;;;6343255;27;20114;-67
2021/06/03 13:29:01;;;;;;;1.85;1.05;;;23.30;49.10;;;;;;6347147;27;20517;-67
2021/06/03 13:32:01;;;;;;;1.20;0.88;;;23.30;49.10;;;;;;6345584;27;20015;-67
2021/06/03 13:35:07;;;;;;;1.48;0.90;;;23.30;49.20;;;;;;6345883;27;20545;-67
2021/06/03 13:38:08;;;;;;;2.28;0.85;;;23.30;49.20;;;;;;6347250;27;20098;-67
2021/06/03 13:41:10;;;;;;;1.65;0.90;;;23.30;49.20;;;;;;6347981;27;20019;-67
2021/06/03 13:44:11;;;;;;;1.75;1.08;;;23.30;49.20;;;;;;6347905;27;20047;-67
2021/06/03 13:47:11;;;;;;;1.60;1.05;;;23.30;49.20;;;;;;6335149;27;20464;-67
2021/06/03 13:50:14;;;;;;;1.38;0.85;;;23.30;49.20;;;;;;6343214;27;20034;-67
2021/06/03 13:53:27;;;;;;;3.13;1.00;;;23.30;49.30;;;;;;6353179;27;20042;-67
2021/06/03 13:56:28;;;;;;;1.65;0.88;;;23.30;49.30;;;;;;6341836;28;20051;-67
2021/06/03 13:59:28;;;;;;;1.60;1.02;;;23.30;49.30;;;;;;6340125;28;20032;-67
2021/06/03 14:02:29;;;;;;;1.20;0.80;;;23.30;49.40;;;;;;6342378;28;20032;-67
2021/06/03 14:05:30;;;;;;;1.88;0.90;;;23.30;49.30;;;;;;6352579;27;20072;-67
2021/06/03 14:08:36;;;;;;;2.55;1.05;;;23.30;49.30;;;;;;6344530;28;20250;-67
2021/06/03 14:15:03;;;;;;;2.25;1.20;;;23.30;49.40;;;;;;6340001;28;20553;-69
2021/06/03 14:18:05;;;;;;;2.95;0.85;;;23.30;49.40;;;;;;6342656;28;20020;-69
2021/06/03 14:21:08;;;;;;;1.88;0.85;;;23.30;49.40;;;;;;6325524;28;20020;-67
2021/06/03 14:24:24;;;;;;;2.00;0.98;;;23.30;49.40;;;;;;6363746;28;20024;-67
2021/06/03 14:27:27;;;;;;;0.95;0.80;;;23.30;49.40;;;;;;6330455;28;20043;-69
2021/06/03 14:30:30;;;;;;;1.92;1.05;;;23.30;49.50;;;;;;6346329;28;20057;-69
2021/06/03 14:33:31;;;;;;;3.60;0.90;;;23.30;49.50;;;;;;6340908;28;20480;-69
2021/06/03 14:36:51;;;;;;;0.90;0.80;;;23.30;49.50;;;;;;6340713;28;20110;-68
2021/06/03 14:39:54;;;;;;;1.30;0.80;;;23.30;49.50;;;;;;6344394;28;20032;-71
2021/06/03 14:43:23;;;;;;;2.15;0.98;;;23.30;49.50;;;;;;6349262;27;20107;-66
2021/06/03 14:46:24;;;;;;;1.10;0.90;;;23.30;49.50;;;;;;6326300;27;20365;-66
2021/06/03 14:49:24;;;;;;;1.30;0.90;;;23.30;49.60;;;;;;6346825;27;20023;-66
2021/06/03 14:52:37;;;;;;;1.38;0.88;;;23.30;49.60;;;;;;6344932;27;20099;-74
2021/06/03 14:55:44;;;;;;;1.10;0.75;;;23.30;49.60;;;;;;6337362;28;20167;-66
2021/06/03 14:58:45;;;;;;;1.90;1.10;;;23.30;49.60;;;;;;6346097;27;20024;-70
2021/06/03 15:01:45;;;;;;;0.98;0.85;;;23.30;49.60;;;;;;6330169;27;20135;-69
2021/06/03 15:04:47;;;;;;;3.33;1.08;;;23.30;49.60;;;;;;6342724;28;20062;-69
2021/06/03 15:07:55;;;;;;;1.35;0.88;;;23.20;49.60;;;;;;6349414;27;20479;-70
2021/06/03 15:10:56;;;;;;;1.08;0.90;;;23.20;49.60;;;;;;6356239;27;20031;-68
2021/06/03 15:13:56;;;;;;;1.02;0.88;;;23.20;49.70;;;;;;6354187;27;20050;-68
2021/06/03 15:16:57;;;;;;;2.83;1.08;;;23.20;49.70;;;;;;6350976;27;20024;-67
2021/06/03 15:19:57;;;;;;;0.90;0.70;;;23.20;49.70;;;;;;6348372;27;20023;-66
2021/06/03 15:23:00;;;;;;;1.80;0.85;;;23.20;49.70;;;;;;6347537;27;20334;-66
2021/06/03 15:26:01;;;;;;;2.17;0.95;;;23.20;49.70;;;;;;6347910;27;20559;-71
2021/06/03 15:29:01;;;;;;;1.17;0.95;;;23.20;49.70;;;;;;6349155;27;20019;-66
2021/06/03 15:32:03;;;;;;;2.20;1.00;;;23.20;49.70;;;;;;6353086;27;20431;-66
2021/06/03 15:35:05;;;;;;;1.02;0.77;;;23.20;49.70;;;;;;6342531;28;20106;-66
2021/06/03 15:38:07;;;;;;;1.83;0.95;;;23.20;49.70;;;;;;6347987;27;20019;-66
2021/06/03 15:41:09;;;;;;;1.30;0.90;;;23.20;49.70;;;;;;6347604;27;20024;-69
2021/06/03 15:44:10;;;;;;;2.75;1.10;;;23.20;49.70;;;;;;6351899;27;20016;-69
2021/06/03 15:47:11;;;;;;;1.73;0.95;;;23.20;49.70;;;;;;6349567;27;20019;-68
2021/06/03 15:50:18;;;;;;;2.72;1.15;;;23.20;49.80;;;;;;6327784;28;20027;-68
2021/06/03 15:53:21;;;;;;;4.32;1.00;;;23.20;49.70;;;;;;6332446;27;20384;-68
2021/06/03 15:56:22;;;;;;;5.10;1.27;;;23.20;49.70;;;;;;6346973;27;20473;-68
2021/06/03 15:59:22;;;;;;;6.72;1.20;;;23.20;49.80;;;;;;6328404;28;20023;-69